Terminal Aerodrome Forecast
Issued by NWS

Home | Current Version | Previous Version | Text Only | Print | Product List | Glossary On
Versions: 1 2 3 4 5 6 7 8 9 10 11 12 13 14 15 16 17 18 19 20
000
FTUS42 KMLB 230608 AAA
TAFSFB
TAF AMD
KSFB 230608Z 2306/2406 36005KT P6SM SCT012 SCT080 OVC100
      TEMPO 2306/2309 -RA OVC012
     FM231000 31005KT P6SM VCSH SCT008 BKN012 OVC090
      TEMPO 2310/2314 5SM -RA BR OVC008
     FM231500 04008KT P6SM VCSH OVC012
     FM231900 04012KT P6SM BKN035=

USA.gov is the U.S. government's official web portal to all federal, state and local government web resources and services.